sensor_id;sensor_type;location;lat;lon;timestamp;P1;durP1;ratioP1;P2;durP2;ratioP2
10651;SDS011;5374;42.742;23.266;2023-07-13T00:01:31;6.47;;;5.70;;
10651;SDS011;5374;42.742;23.266;2023-07-13T00:04:19;9.90;;;6.37;;
10651;SDS011;5374;42.742;23.266;2023-07-13T00:07:11;7.37;;;6.47;;
10651;SDS011;5374;42.742;23.266;2023-07-13T00:09:59;8.00;;;6.80;;
10651;SDS011;5374;42.742;23.266;2023-07-13T00:12:47;10.43;;;6.43;;
10651;SDS011;5374;42.742;23.266;2023-07-13T00:15:35;6.57;;;5.97;;
10651;SDS011;5374;42.742;23.266;2023-07-13T00:18:23;9.13;;;6.93;;
10651;SDS011;5374;42.742;23.266;2023-07-13T00:21:10;6.93;;;6.23;;
10651;SDS011;5374;42.742;23.266;2023-07-13T00:23:59;8.10;;;6.70;;
10651;SDS011;5374;42.742;23.266;2023-07-13T00:26:47;7.47;;;6.67;;
10651;SDS011;5374;42.742;23.266;2023-07-13T00:29:34;6.90;;;6.30;;
10651;SDS011;5374;42.742;23.266;2023-07-13T00:32:21;7.37;;;6.10;;
10651;SDS011;5374;42.742;23.266;2023-07-13T00:35:12;7.70;;;6.60;;
10651;SDS011;5374;42.742;23.266;2023-07-13T00:38:00;7.43;;;6.50;;
10651;SDS011;5374;42.742;23.266;2023-07-13T00:40:49;8.03;;;6.93;;
10651;SDS011;5374;42.742;23.266;2023-07-13T00:43:36;8.93;;;7.33;;
10651;SDS011;5374;42.742;23.266;2023-07-13T00:46:25;9.33;;;6.73;;
10651;SDS011;5374;42.742;23.266;2023-07-13T00:49:15;9.50;;;6.00;;
10651;SDS011;5374;42.742;23.266;2023-07-13T00:52:05;9.73;;;6.50;;
10651;SDS011;5374;42.742;23.266;2023-07-13T00:54:55;7.73;;;6.43;;
10651;SDS011;5374;42.742;23.266;2023-07-13T00:57:44;14.20;;;6.90;;
10651;SDS011;5374;42.742;23.266;2023-07-13T01:00:31;13.13;;;7.07;;
10651;SDS011;5374;42.742;23.266;2023-07-13T01:03:21;9.13;;;6.93;;
10651;SDS011;5374;42.742;23.266;2023-07-13T01:06:09;8.37;;;7.03;;
10651;SDS011;5374;42.742;23.266;2023-07-13T01:08:56;8.77;;;7.43;;
10651;SDS011;5374;42.742;23.266;2023-07-13T01:11:44;8.00;;;6.87;;
10651;SDS011;5374;42.742;23.266;2023-07-13T01:14:33;10.43;;;6.37;;
10651;SDS011;5374;42.742;23.266;2023-07-13T01:17:20;7.50;;;6.80;;
10651;SDS011;5374;42.742;23.266;2023-07-13T01:20:08;9.00;;;6.83;;
10651;SDS011;5374;42.742;23.266;2023-07-13T01:22:57;8.70;;;7.07;;
10651;SDS011;5374;42.742;23.266;2023-07-13T01:25:45;9.77;;;7.00;;
10651;SDS011;5374;42.742;23.266;2023-07-13T01:28:32;11.97;;;6.63;;
10651;SDS011;5374;42.742;23.266;2023-07-13T01:31:22;8.47;;;6.47;;
10651;SDS011;5374;42.742;23.266;2023-07-13T01:34:09;10.33;;;6.80;;
10651;SDS011;5374;42.742;23.266;2023-07-13T01:36:56;11.43;;;6.27;;
10651;SDS011;5374;42.742;23.266;2023-07-13T01:39:45;13.73;;;5.97;;
10651;SDS011;5374;42.742;23.266;2023-07-13T01:42:32;9.00;;;5.70;;
10651;SDS011;5374;42.742;23.266;2023-07-13T01:45:19;11.47;;;6.50;;
10651;SDS011;5374;42.742;23.266;2023-07-13T01:48:06;10.33;;;6.13;;
10651;SDS011;5374;42.742;23.266;2023-07-13T01:50:53;10.93;;;6.00;;
10651;SDS011;5374;42.742;23.266;2023-07-13T01:53:40;10.50;;;5.93;;
10651;SDS011;5374;42.742;23.266;2023-07-13T01:56:29;12.27;;;5.77;;
10651;SDS011;5374;42.742;23.266;2023-07-13T01:59:16;7.50;;;5.90;;
10651;SDS011;5374;42.742;23.266;2023-07-13T02:02:03;9.87;;;6.30;;
10651;SDS011;5374;42.742;23.266;2023-07-13T02:04:51;7.93;;;6.07;;
10651;SDS011;5374;42.742;23.266;2023-07-13T02:07:38;10.63;;;6.50;;
10651;SDS011;5374;42.742;23.266;2023-07-13T02:10:26;10.00;;;6.13;;
10651;SDS011;5374;42.742;23.266;2023-07-13T02:13:15;8.40;;;5.80;;
10651;SDS011;5374;42.742;23.266;2023-07-13T02:16:02;10.50;;;6.97;;
10651;SDS011;5374;42.742;23.266;2023-07-13T02:18:50;10.57;;;6.87;;
10651;SDS011;5374;42.742;23.266;2023-07-13T02:21:37;12.27;;;5.93;;
10651;SDS011;5374;42.742;23.266;2023-07-13T02:24:24;7.77;;;6.13;;
10651;SDS011;5374;42.742;23.266;2023-07-13T02:27:12;10.27;;;5.97;;
10651;SDS011;5374;42.742;23.266;2023-07-13T02:30:01;11.57;;;6.13;;
10651;SDS011;5374;42.742;23.266;2023-07-13T02:32:48;7.53;;;6.27;;
10651;SDS011;5374;42.742;23.266;2023-07-13T02:35:35;10.40;;;6.40;;
10651;SDS011;5374;42.742;23.266;2023-07-13T02:38:23;10.17;;;6.77;;
10651;SDS011;5374;42.742;23.266;2023-07-13T02:41:10;8.80;;;6.50;;
10651;SDS011;5374;42.742;23.266;2023-07-13T02:43:58;8.80;;;6.50;;
10651;SDS011;5374;42.742;23.266;2023-07-13T02:46:50;10.27;;;6.73;;
10651;SDS011;5374;42.742;23.266;2023-07-13T02:49:37;8.70;;;5.83;;
10651;SDS011;5374;42.742;23.266;2023-07-13T02:52:24;7.33;;;6.00;;
10651;SDS011;5374;42.742;23.266;2023-07-13T02:55:12;9.53;;;6.20;;
10651;SDS011;5374;42.742;23.266;2023-07-13T02:57:59;11.23;;;6.93;;
10651;SDS011;5374;42.742;23.266;2023-07-13T03:00:46;10.10;;;6.47;;
10651;SDS011;5374;42.742;23.266;2023-07-13T03:03:37;14.13;;;6.33;;
10651;SDS011;5374;42.742;23.266;2023-07-13T03:06:24;15.33;;;7.07;;
10651;SDS011;5374;42.742;23.266;2023-07-13T03:09:15;12.37;;;7.30;;
10651;SDS011;5374;42.742;23.266;2023-07-13T03:12:03;9.43;;;7.03;;
10651;SDS011;5374;42.742;23.266;2023-07-13T03:14:50;11.63;;;7.40;;
10651;SDS011;5374;42.742;23.266;2023-07-13T03:17:37;13.80;;;7.90;;
10651;SDS011;5374;42.742;23.266;2023-07-13T03:20:27;13.73;;;7.10;;
10651;SDS011;5374;42.742;23.266;2023-07-13T03:23:14;12.20;;;7.47;;
10651;SDS011;5374;42.742;23.266;2023-07-13T03:26:02;12.50;;;6.90;;
10651;SDS011;5374;42.742;23.266;2023-07-13T03:28:52;11.63;;;6.77;;
10651;SDS011;5374;42.742;23.266;2023-07-13T03:31:39;16.73;;;7.80;;
10651;SDS011;5374;42.742;23.266;2023-07-13T03:34:26;16.33;;;7.40;;
10651;SDS011;5374;42.742;23.266;2023-07-13T03:37:15;12.53;;;7.37;;
10651;SDS011;5374;42.742;23.266;2023-07-13T03:40:02;12.67;;;7.63;;
10651;SDS011;5374;42.742;23.266;2023-07-13T03:42:49;19.17;;;8.23;;
10651;SDS011;5374;42.742;23.266;2023-07-13T03:45:37;12.53;;;7.67;;
10651;SDS011;5374;42.742;23.266;2023-07-13T03:48:24;14.17;;;7.23;;
10651;SDS011;5374;42.742;23.266;2023-07-13T03:51:12;12.43;;;7.27;;
10651;SDS011;5374;42.742;23.266;2023-07-13T03:54:02;11.27;;;7.50;;
10651;SDS011;5374;42.742;23.266;2023-07-13T03:56:50;9.97;;;7.23;;
10651;SDS011;5374;42.742;23.266;2023-07-13T03:59:37;9.30;;;6.57;;
10651;SDS011;5374;42.742;23.266;2023-07-13T04:02:24;14.40;;;7.00;;
10651;SDS011;5374;42.742;23.266;2023-07-13T04:05:11;9.73;;;6.47;;
10651;SDS011;5374;42.742;23.266;2023-07-13T04:07:58;14.53;;;7.23;;
10651;SDS011;5374;42.742;23.266;2023-07-13T04:10:46;17.67;;;7.60;;
10651;SDS011;5374;42.742;23.266;2023-07-13T04:13:34;14.80;;;8.13;;
10651;SDS011;5374;42.742;23.266;2023-07-13T04:16:21;18.00;;;7.47;;
10651;SDS011;5374;42.742;23.266;2023-07-13T04:19:08;18.17;;;8.00;;
10651;SDS011;5374;42.742;23.266;2023-07-13T04:21:56;16.50;;;7.50;;
10651;SDS011;5374;42.742;23.266;2023-07-13T04:24:43;20.20;;;7.83;;
10651;SDS011;5374;42.742;23.266;2023-07-13T04:27:31;16.10;;;8.13;;
10651;SDS011;5374;42.742;23.266;2023-07-13T04:30:19;15.27;;;7.87;;
10651;SDS011;5374;42.742;23.266;2023-07-13T04:33:06;12.97;;;7.33;;
10651;SDS011;5374;42.742;23.266;2023-07-13T04:35:54;10.47;;;6.90;;
10651;SDS011;5374;42.742;23.266;2023-07-13T04:38:42;12.57;;;7.40;;
10651;SDS011;5374;42.742;23.266;2023-07-13T04:41:30;21.63;;;7.17;;
10651;SDS011;5374;42.742;23.266;2023-07-13T04:44:19;11.67;;;6.93;;
10651;SDS011;5374;42.742;23.266;2023-07-13T04:47:06;18.07;;;7.80;;
10651;SDS011;5374;42.742;23.266;2023-07-13T04:49:53;9.20;;;7.30;;
10651;SDS011;5374;42.742;23.266;2023-07-13T04:52:40;11.93;;;7.80;;
10651;SDS011;5374;42.742;23.266;2023-07-13T04:55:28;10.43;;;7.80;;
10651;SDS011;5374;42.742;23.266;2023-07-13T04:58:16;8.67;;;7.20;;
10651;SDS011;5374;42.742;23.266;2023-07-13T05:01:05;13.13;;;7.77;;
10651;SDS011;5374;42.742;23.266;2023-07-13T05:03:54;9.83;;;7.70;;
10651;SDS011;5374;42.742;23.266;2023-07-13T05:06:44;12.83;;;8.23;;
10651;SDS011;5374;42.742;23.266;2023-07-13T05:09:31;12.83;;;7.73;;
10651;SDS011;5374;42.742;23.266;2023-07-13T05:12:18;11.67;;;7.83;;
10651;SDS011;5374;42.742;23.266;2023-07-13T05:15:06;12.20;;;7.43;;
10651;SDS011;5374;42.742;23.266;2023-07-13T05:17:55;11.03;;;7.90;;
10651;SDS011;5374;42.742;23.266;2023-07-13T05:20:42;11.57;;;7.90;;
10651;SDS011;5374;42.742;23.266;2023-07-13T05:23:30;13.93;;;8.23;;
10651;SDS011;5374;42.742;23.266;2023-07-13T05:26:17;10.35;;;7.53;;
10651;SDS011;5374;42.742;23.266;2023-07-13T05:29:06;11.55;;;7.45;;
10651;SDS011;5374;42.742;23.266;2023-07-13T05:31:53;9.77;;;7.40;;
10651;SDS011;5374;42.742;23.266;2023-07-13T05:34:41;11.33;;;7.50;;
10651;SDS011;5374;42.742;23.266;2023-07-13T05:37:29;9.68;;;7.70;;
10651;SDS011;5374;42.742;23.266;2023-07-13T05:40:16;11.25;;;7.30;;
10651;SDS011;5374;42.742;23.266;2023-07-13T05:43:04;13.27;;;7.28;;
10651;SDS011;5374;42.742;23.266;2023-07-13T05:45:52;11.65;;;7.82;;
10651;SDS011;5374;42.742;23.266;2023-07-13T05:48:40;9.98;;;7.50;;
10651;SDS011;5374;42.742;23.266;2023-07-13T05:51:29;8.40;;;7.50;;
10651;SDS011;5374;42.742;23.266;2023-07-13T05:54:16;11.98;;;7.63;;
10651;SDS011;5374;42.742;23.266;2023-07-13T05:57:04;10.13;;;7.68;;
10651;SDS011;5374;42.742;23.266;2023-07-13T05:59:51;13.13;;;7.85;;
10651;SDS011;5374;42.742;23.266;2023-07-13T06:02:39;9.98;;;7.35;;
10651;SDS011;5374;42.742;23.266;2023-07-13T06:05:26;13.57;;;7.47;;
10651;SDS011;5374;42.742;23.266;2023-07-13T06:08:15;10.37;;;7.07;;
10651;SDS011;5374;42.742;23.266;2023-07-13T06:13:52;11.65;;;7.78;;
10651;SDS011;5374;42.742;23.266;2023-07-13T06:16:39;9.55;;;6.57;;
10651;SDS011;5374;42.742;23.266;2023-07-13T06:19:28;10.68;;;7.38;;
10651;SDS011;5374;42.742;23.266;2023-07-13T06:22:16;16.63;;;7.78;;
10651;SDS011;5374;42.742;23.266;2023-07-13T06:25:05;27.20;;;8.38;;
10651;SDS011;5374;42.742;23.266;2023-07-13T06:27:53;21.27;;;8.07;;
10651;SDS011;5374;42.742;23.266;2023-07-13T06:30:41;18.73;;;8.40;;
10651;SDS011;5374;42.742;23.266;2023-07-13T06:33:30;10.70;;;7.65;;
10651;SDS011;5374;42.742;23.266;2023-07-13T06:36:18;15.70;;;7.70;;
10651;SDS011;5374;42.742;23.266;2023-07-13T06:39:06;20.20;;;7.65;;
10651;SDS011;5374;42.742;23.266;2023-07-13T06:41:55;10.02;;;7.47;;
10651;SDS011;5374;42.742;23.266;2023-07-13T06:44:43;9.23;;;7.55;;
10651;SDS011;5374;42.742;23.266;2023-07-13T06:47:31;8.55;;;7.10;;
10651;SDS011;5374;42.742;23.266;2023-07-13T06:50:31;11.10;;;8.38;;
10651;SDS011;5374;42.742;23.266;2023-07-13T06:53:31;13.60;;;7.90;;
10651;SDS011;5374;42.742;23.266;2023-07-13T06:56:19;13.50;;;7.80;;
10651;SDS011;5374;42.742;23.266;2023-07-13T06:59:07;15.63;;;7.95;;
10651;SDS011;5374;42.742;23.266;2023-07-13T07:01:54;17.02;;;7.95;;
10651;SDS011;5374;42.742;23.266;2023-07-13T07:04:42;23.88;;;8.35;;
10651;SDS011;5374;42.742;23.266;2023-07-13T07:07:31;13.25;;;8.15;;
10651;SDS011;5374;42.742;23.266;2023-07-13T07:10:18;11.48;;;7.80;;
10651;SDS011;5374;42.742;23.266;2023-07-13T07:13:06;15.43;;;8.32;;
10651;SDS011;5374;42.742;23.266;2023-07-13T07:15:55;18.98;;;8.90;;
10651;SDS011;5374;42.742;23.266;2023-07-13T07:18:42;14.82;;;8.50;;
10651;SDS011;5374;42.742;23.266;2023-07-13T07:21:29;19.25;;;8.45;;
10651;SDS011;5374;42.742;23.266;2023-07-13T07:24:17;17.70;;;8.13;;
10651;SDS011;5374;42.742;23.266;2023-07-13T07:27:05;15.80;;;8.73;;
10651;SDS011;5374;42.742;23.266;2023-07-13T07:29:53;12.27;;;8.00;;
10651;SDS011;5374;42.742;23.266;2023-07-13T07:32:41;14.70;;;8.30;;
10651;SDS011;5374;42.742;23.266;2023-07-13T07:35:29;17.38;;;8.68;;
10651;SDS011;5374;42.742;23.266;2023-07-13T07:38:16;15.88;;;7.72;;
10651;SDS011;5374;42.742;23.266;2023-07-13T07:41:03;15.55;;;8.40;;
10651;SDS011;5374;42.742;23.266;2023-07-13T07:43:51;14.15;;;8.18;;
10651;SDS011;5374;42.742;23.266;2023-07-13T07:46:39;16.08;;;8.48;;
10651;SDS011;5374;42.742;23.266;2023-07-13T07:49:28;12.95;;;7.82;;
10651;SDS011;5374;42.742;23.266;2023-07-13T07:52:15;13.57;;;8.40;;
10651;SDS011;5374;42.742;23.266;2023-07-13T07:55:03;13.38;;;8.63;;
10651;SDS011;5374;42.742;23.266;2023-07-13T07:57:50;18.95;;;8.68;;
10651;SDS011;5374;42.742;23.266;2023-07-13T08:00:37;11.48;;;8.23;;
10651;SDS011;5374;42.742;23.266;2023-07-13T08:03:26;17.35;;;9.00;;
10651;SDS011;5374;42.742;23.266;2023-07-13T08:06:24;13.35;;;8.18;;
10651;SDS011;5374;42.742;23.266;2023-07-13T08:09:11;11.18;;;9.13;;
10651;SDS011;5374;42.742;23.266;2023-07-13T08:11:58;13.40;;;8.40;;
10651;SDS011;5374;42.742;23.266;2023-07-13T08:14:46;12.60;;;8.80;;
10651;SDS011;5374;42.742;23.266;2023-07-13T08:17:44;13.65;;;9.52;;
10651;SDS011;5374;42.742;23.266;2023-07-13T08:20:32;15.90;;;8.55;;
10651;SDS011;5374;42.742;23.266;2023-07-13T08:23:24;14.02;;;8.48;;
10651;SDS011;5374;42.742;23.266;2023-07-13T08:26:12;15.23;;;9.10;;
10651;SDS011;5374;42.742;23.266;2023-07-13T08:29:06;11.90;;;9.23;;
10651;SDS011;5374;42.742;23.266;2023-07-13T08:31:53;10.93;;;9.23;;
10651;SDS011;5374;42.742;23.266;2023-07-13T08:34:40;13.18;;;8.57;;
10651;SDS011;5374;42.742;23.266;2023-07-13T08:37:28;14.95;;;8.98;;
10651;SDS011;5374;42.742;23.266;2023-07-13T08:40:17;18.35;;;9.48;;
10651;SDS011;5374;42.742;23.266;2023-07-13T08:43:12;13.38;;;8.43;;
10651;SDS011;5374;42.742;23.266;2023-07-13T08:46:02;18.23;;;8.90;;
10651;SDS011;5374;42.742;23.266;2023-07-13T08:48:56;9.65;;;7.35;;
10651;SDS011;5374;42.742;23.266;2023-07-13T08:51:45;14.27;;;8.52;;
10651;SDS011;5374;42.742;23.266;2023-07-13T08:54:35;13.57;;;8.68;;
10651;SDS011;5374;42.742;23.266;2023-07-13T08:57:29;18.52;;;8.50;;
10651;SDS011;5374;42.742;23.266;2023-07-13T09:00:19;11.10;;;8.07;;
10651;SDS011;5374;42.742;23.266;2023-07-13T09:03:08;14.52;;;8.38;;
10651;SDS011;5374;42.742;23.266;2023-07-13T09:06:06;14.40;;;8.23;;
10651;SDS011;5374;42.742;23.266;2023-07-13T09:08:58;11.45;;;8.35;;
10651;SDS011;5374;42.742;23.266;2023-07-13T09:11:50;16.55;;;8.32;;
10651;SDS011;5374;42.742;23.266;2023-07-13T09:14:47;12.32;;;7.50;;
10651;SDS011;5374;42.742;23.266;2023-07-13T09:17:41;13.90;;;7.53;;
10651;SDS011;5374;42.742;23.266;2023-07-13T09:20:37;17.25;;;7.72;;
10651;SDS011;5374;42.742;23.266;2023-07-13T09:23:31;10.55;;;7.63;;
10651;SDS011;5374;42.742;23.266;2023-07-13T09:26:19;17.63;;;8.02;;
10651;SDS011;5374;42.742;23.266;2023-07-13T09:29:11;15.32;;;8.52;;
10651;SDS011;5374;42.742;23.266;2023-07-13T09:32:06;19.60;;;8.93;;
10651;SDS011;5374;42.742;23.266;2023-07-13T09:34:57;21.60;;;8.88;;
10651;SDS011;5374;42.742;23.266;2023-07-13T09:37:49;17.75;;;7.80;;
10651;SDS011;5374;42.742;23.266;2023-07-13T09:40:39;11.75;;;8.05;;
10651;SDS011;5374;42.742;23.266;2023-07-13T09:43:33;14.30;;;8.52;;
10651;SDS011;5374;42.742;23.266;2023-07-13T09:46:21;15.93;;;8.10;;
10651;SDS011;5374;42.742;23.266;2023-07-13T09:49:10;17.33;;;7.78;;
10651;SDS011;5374;42.742;23.266;2023-07-13T09:51:59;15.35;;;7.75;;
10651;SDS011;5374;42.742;23.266;2023-07-13T09:54:49;20.77;;;7.55;;
10651;SDS011;5374;42.742;23.266;2023-07-13T09:57:42;7.97;;;7.15;;
10651;SDS011;5374;42.742;23.266;2023-07-13T10:00:33;12.57;;;6.45;;
10651;SDS011;5374;42.742;23.266;2023-07-13T10:03:23;12.73;;;7.10;;
10651;SDS011;5374;42.742;23.266;2023-07-13T10:06:14;10.15;;;6.70;;
10651;SDS011;5374;42.742;23.266;2023-07-13T10:09:03;14.93;;;7.00;;
10651;SDS011;5374;42.742;23.266;2023-07-13T10:11:59;12.98;;;6.53;;
10651;SDS011;5374;42.742;23.266;2023-07-13T10:14:47;11.52;;;5.90;;
10651;SDS011;5374;42.742;23.266;2023-07-13T10:17:35;10.73;;;5.90;;
10651;SDS011;5374;42.742;23.266;2023-07-13T10:20:23;12.32;;;6.25;;
10651;SDS011;5374;42.742;23.266;2023-07-13T10:23:14;7.70;;;5.45;;
10651;SDS011;5374;42.742;23.266;2023-07-13T10:26:09;8.27;;;5.57;;
10651;SDS011;5374;42.742;23.266;2023-07-13T10:29:03;8.07;;;5.05;;
10651;SDS011;5374;42.742;23.266;2023-07-13T10:31:54;8.07;;;5.18;;
10651;SDS011;5374;42.742;23.266;2023-07-13T10:34:43;9.63;;;5.45;;
10651;SDS011;5374;42.742;23.266;2023-07-13T10:37:35;11.10;;;5.00;;
10651;SDS011;5374;42.742;23.266;2023-07-13T10:40:30;9.68;;;5.30;;
10651;SDS011;5374;42.742;23.266;2023-07-13T10:43:23;7.60;;;6.15;;
10651;SDS011;5374;42.742;23.266;2023-07-13T10:46:19;13.80;;;5.50;;
10651;SDS011;5374;42.742;23.266;2023-07-13T10:49:07;11.82;;;5.13;;
10651;SDS011;5374;42.742;23.266;2023-07-13T10:51:58;7.53;;;4.95;;
10651;SDS011;5374;42.742;23.266;2023-07-13T10:54:46;12.18;;;5.28;;
10651;SDS011;5374;42.742;23.266;2023-07-13T10:57:38;9.63;;;5.57;;
10651;SDS011;5374;42.742;23.266;2023-07-13T11:00:32;13.88;;;5.45;;
10651;SDS011;5374;42.742;23.266;2023-07-13T11:03:31;26.60;;;6.47;;
10651;SDS011;5374;42.742;23.266;2023-07-13T11:06:29;12.88;;;5.55;;
